createdAt,value
2018-06-11T00:00:20.075Z,17.49
2018-06-11T00:02:49.963Z,17.46
2018-06-11T00:05:20.070Z,17.44
2018-06-11T00:07:50.728Z,17.45
2018-06-11T00:10:21.021Z,17.43
2018-06-11T00:12:51.238Z,17.43
2018-06-11T00:15:20.943Z,17.44
2018-06-11T00:17:51.286Z,17.48
2018-06-11T00:20:21.659Z,17.51
2018-06-11T00:22:52.053Z,17.49
2018-06-11T00:25:22.412Z,17.48
2018-06-11T00:27:52.571Z,17.49
2018-06-11T00:30:22.809Z,17.49
2018-06-11T00:32:52.877Z,17.55
2018-06-11T00:35:22.788Z,17.60
2018-06-11T00:37:52.927Z,17.64
2018-06-11T00:40:24.184Z,17.68
2018-06-11T00:42:54.398Z,17.71
2018-06-11T00:45:24.531Z,17.73
2018-06-11T00:47:54.755Z,17.72
2018-06-11T00:50:24.855Z,17.71
2018-06-11T00:52:55.126Z,17.73
2018-06-11T00:55:25.078Z,17.74
2018-06-11T00:57:55.486Z,17.72
2018-06-11T01:00:25.868Z,17.70
2018-06-11T01:02:55.949Z,17.69
2018-06-11T01:05:26.118Z,17.67
2018-06-11T01:07:56.442Z,17.65
2018-06-11T01:10:26.467Z,17.62
2018-06-11T01:12:56.492Z,17.62
2018-06-11T01:15:26.412Z,17.60
2018-06-11T01:17:56.696Z,17.61
2018-06-11T01:20:27.425Z,17.60
2018-06-11T01:22:58.426Z,17.58
2018-06-11T01:25:29.513Z,17.59
2018-06-11T01:27:59.689Z,17.60
2018-06-11T01:30:29.628Z,17.61
2018-06-11T01:32:59.726Z,17.62
2018-06-11T01:35:29.630Z,17.62
2018-06-11T01:37:59.933Z,17.63
2018-06-11T01:40:29.973Z,17.62
2018-06-11T01:43:00.369Z,17.60
2018-06-11T01:45:30.386Z,17.60
2018-06-11T01:48:00.625Z,17.58
2018-06-11T01:50:30.793Z,17.59
2018-06-11T01:53:01.965Z,17.58
2018-06-11T01:55:32.275Z,17.60
2018-06-11T01:58:02.605Z,17.61
2018-06-11T02:00:32.448Z,17.64
2018-06-11T02:03:03.857Z,17.68
2018-06-11T02:05:33.778Z,17.71
2018-06-11T02:08:03.923Z,17.73
2018-06-11T02:10:34.159Z,17.76
2018-06-11T02:13:04.299Z,17.79
2018-06-11T02:15:34.645Z,17.83
2018-06-11T02:18:04.643Z,17.86
2018-06-11T02:20:34.584Z,17.91
2018-06-11T02:23:04.895Z,17.93
2018-06-11T02:25:35.726Z,17.96
2018-06-11T02:28:06.147Z,17.96
2018-06-11T02:31:02.516Z,17.95
2018-06-11T02:33:32.678Z,17.95
2018-06-11T02:36:02.732Z,17.95
2018-06-11T02:41:29.299Z,17.94
2018-06-11T02:43:59.755Z,18.01
2018-06-11T02:46:29.762Z,18.09
2018-06-11T02:48:59.932Z,18.17
2018-06-11T02:51:30.065Z,18.22
2018-06-11T02:54:00.216Z,18.25
2018-06-11T02:56:30.509Z,18.27
2018-06-11T02:59:00.559Z,18.28
2018-06-11T03:01:30.696Z,18.29
2018-06-11T03:04:17.908Z,18.29
2018-06-11T03:06:47.875Z,18.28
2018-06-11T03:09:17.864Z,18.29
2018-06-11T03:11:47.792Z,18.31
2018-06-11T03:14:17.932Z,18.33
2018-06-11T03:16:48.485Z,18.36
2018-06-11T03:19:18.696Z,18.39
2018-06-11T03:21:48.577Z,18.41
2018-06-11T03:24:18.469Z,18.42
2018-06-11T03:26:48.725Z,18.49
2018-06-11T03:29:18.995Z,18.54
2018-06-11T03:31:49.123Z,18.56
2018-06-11T03:34:25.004Z,18.57
2018-06-11T03:36:55.223Z,18.60
2018-06-11T03:39:25.246Z,18.61
2018-06-11T03:41:55.532Z,18.63
2018-06-11T03:44:25.682Z,18.62
2018-06-11T03:46:55.733Z,18.59
2018-06-11T03:49:26.152Z,18.59
2018-06-11T03:51:56.425Z,18.58
2018-06-11T03:54:27.474Z,18.59
2018-06-11T03:56:57.648Z,18.64
2018-06-11T03:59:27.539Z,18.68
2018-06-11T04:01:57.843Z,18.74
2018-06-11T04:04:28.179Z,18.78
2018-06-11T04:06:58.379Z,18.81
2018-06-11T04:09:28.218Z,18.86
2018-06-11T04:11:58.311Z,18.94
2018-06-11T04:14:28.280Z,18.98
2018-06-11T04:16:58.424Z,19.01
2018-06-11T04:19:28.566Z,19.02
2018-06-11T04:21:59.127Z,19.01
2018-06-11T04:24:29.510Z,18.96
2018-06-11T04:26:59.738Z,18.95
2018-06-11T04:29:30.204Z,18.89
2018-06-11T04:32:01.473Z,18.86
2018-06-11T04:34:31.360Z,18.88
2018-06-11T04:37:01.535Z,18.94
2018-06-11T04:39:31.761Z,18.92
2018-06-11T04:42:01.896Z,18.91
2018-06-11T04:44:32.035Z,18.94
2018-06-11T04:47:02.493Z,18.93
2018-06-11T04:49:32.677Z,18.92
2018-06-11T04:52:02.556Z,18.90
2018-06-11T04:54:33.551Z,18.91
2018-06-11T04:57:03.758Z,18.91
2018-06-11T04:59:33.938Z,18.93
2018-06-11T05:02:04.597Z,18.99
2018-06-11T05:04:34.939Z,19.03
2018-06-11T05:07:06.182Z,19.06
2018-06-11T05:09:36.291Z,19.09
2018-06-11T05:12:06.442Z,19.14
2018-06-11T05:14:37.565Z,19.21
2018-06-11T05:17:07.768Z,19.25
2018-06-11T05:19:37.767Z,19.32
2018-06-11T05:22:07.967Z,19.35
2018-06-11T05:24:37.895Z,19.42
2018-06-11T05:27:08.009Z,19.49
2018-06-11T05:29:38.038Z,19.54
2018-06-11T05:32:08.171Z,19.60
2018-06-11T05:34:38.438Z,19.74
2018-06-11T05:37:08.865Z,19.80
2018-06-11T05:39:39.178Z,19.77
2018-06-11T05:42:09.278Z,19.81
2018-06-11T05:44:39.472Z,19.89
2018-06-11T05:47:09.357Z,20.00
2018-06-11T05:49:39.791Z,20.02
2018-06-11T05:52:10.048Z,19.96
2018-06-11T05:54:40.540Z,19.95
2018-06-11T05:57:10.499Z,19.92
2018-06-11T05:59:40.676Z,19.96
2018-06-11T06:02:10.529Z,19.95
2018-06-11T06:04:40.660Z,19.90
2018-06-11T06:07:10.873Z,19.83
2018-06-11T06:09:45.022Z,19.83
2018-06-11T06:12:15.178Z,19.81
2018-06-11T06:14:45.403Z,19.73
2018-06-11T06:17:15.533Z,19.68
2018-06-11T06:19:45.797Z,19.66
2018-06-11T06:22:16.058Z,19.57
2018-06-11T06:24:46.153Z,19.51
2018-06-11T06:27:16.099Z,19.48
2018-06-11T06:29:46.393Z,19.47
2018-06-11T06:32:16.673Z,19.45
2018-06-11T06:34:46.619Z,19.45
2018-06-11T06:37:16.775Z,19.46
2018-06-11T06:39:46.975Z,19.53
2018-06-11T06:42:17.133Z,19.57
2018-06-11T06:44:47.422Z,19.64
2018-06-11T06:47:17.538Z,19.69
2018-06-11T06:49:47.715Z,19.76
2018-06-11T06:52:17.913Z,19.81
2018-06-11T06:54:48.028Z,19.82
2018-06-11T06:57:17.950Z,19.84
2018-06-11T06:59:48.272Z,19.88
2018-06-11T07:02:18.341Z,19.88
2018-06-11T07:04:48.424Z,19.90
2018-06-11T07:07:18.492Z,19.88
2018-06-11T07:09:48.597Z,19.92
2018-06-11T07:12:18.533Z,19.93
2018-06-11T07:14:48.696Z,19.96
2018-06-11T07:17:18.900Z,20.00
2018-06-11T07:19:49.186Z,20.04
2018-06-11T07:22:19.298Z,20.09
2018-06-11T07:24:49.439Z,20.17
2018-06-11T07:27:20.723Z,20.32
2018-06-11T07:29:50.793Z,20.40
2018-06-11T07:32:21.810Z,20.43
2018-06-11T07:34:52.023Z,20.56
2018-06-11T07:37:21.916Z,20.65
2018-06-11T07:39:52.217Z,20.65
2018-06-11T07:42:22.227Z,20.65
2018-06-11T07:44:52.465Z,20.51
2018-06-11T07:47:22.599Z,20.43
2018-06-11T07:49:52.920Z,20.38
2018-06-11T07:52:23.007Z,20.36
2018-06-11T07:54:54.100Z,20.32
2018-06-11T07:57:24.211Z,20.26
2018-06-11T07:59:55.448Z,20.26
2018-06-11T08:02:25.504Z,20.30
2018-06-11T08:04:55.693Z,20.34
2018-06-11T08:07:25.929Z,20.43
2018-06-11T08:09:56.246Z,20.50
2018-06-11T08:12:26.268Z,20.48
2018-06-11T08:14:56.340Z,20.48
2018-06-11T08:17:26.447Z,20.39
2018-06-11T08:19:56.607Z,20.33
2018-06-11T08:22:26.802Z,20.30
2018-06-11T08:24:57.001Z,20.33
2018-06-11T08:27:27.288Z,20.30
2018-06-11T08:29:57.480Z,20.35
2018-06-11T08:32:27.790Z,20.48
2018-06-11T08:34:58.226Z,20.68
2018-06-11T08:37:28.303Z,20.85
2018-06-11T08:39:58.313Z,21.05
2018-06-11T08:42:28.585Z,21.29
2018-06-11T08:44:58.580Z,21.54
2018-06-11T08:47:28.583Z,21.63
2018-06-11T08:49:58.770Z,21.83
2018-06-11T08:52:29.108Z,21.88
2018-06-11T08:54:59.279Z,22.00
2018-06-11T08:57:29.494Z,22.08
2018-06-11T08:59:59.684Z,22.18
2018-06-11T09:02:29.642Z,22.34
2018-06-11T09:04:59.696Z,22.25
2018-06-11T09:07:29.999Z,22.27
2018-06-11T09:10:00.134Z,22.31
2018-06-11T09:12:30.436Z,22.33
2018-06-11T09:15:00.668Z,22.14
2018-06-11T09:17:30.820Z,21.93
2018-06-11T09:20:00.995Z,21.85
2018-06-11T09:22:32.282Z,21.78
2018-06-11T09:25:02.444Z,21.76
2018-06-11T09:27:32.641Z,21.74
2018-06-11T09:30:02.637Z,21.83
2018-06-11T09:32:32.941Z,21.89
2018-06-11T09:40:09.016Z,22.04
2018-06-11T09:42:39.059Z,22.24
2018-06-11T09:45:08.771Z,22.49
2018-06-11T09:47:38.721Z,22.62
2018-06-11T09:50:08.879Z,22.84
2018-06-11T09:52:39.139Z,23.13
2018-06-11T09:55:09.607Z,23.25
2018-06-11T09:57:40.014Z,23.29
2018-06-11T10:00:13.906Z,23.35
2018-06-11T10:02:43.982Z,23.46
2018-06-11T10:05:15.019Z,23.43
2018-06-11T10:07:45.066Z,23.52
2018-06-11T10:10:15.364Z,23.49
2018-06-11T10:12:45.445Z,23.61
2018-06-11T10:15:15.398Z,23.82
2018-06-11T10:17:45.980Z,23.82
2018-06-11T10:20:16.201Z,23.78
2018-06-11T10:22:46.511Z,23.85
2018-06-11T10:25:16.594Z,23.96
2018-06-11T10:27:46.805Z,23.79
2018-06-11T10:30:17.004Z,23.64
2018-06-11T10:32:47.044Z,23.51
2018-06-11T10:35:17.118Z,23.51
2018-06-11T10:37:47.295Z,23.62
2018-06-11T10:40:17.426Z,23.68
2018-06-11T10:42:47.459Z,23.78
2018-06-11T10:45:17.633Z,23.95
2018-06-11T10:47:47.867Z,23.89
2018-06-11T10:50:18.670Z,24.04
2018-06-11T10:52:48.665Z,24.18
2018-06-11T10:55:18.881Z,24.42
2018-06-11T10:57:48.815Z,24.03
2018-06-11T11:00:18.905Z,23.72
2018-06-11T11:02:48.774Z,23.57
2018-06-11T11:05:18.995Z,23.65
2018-06-11T11:07:49.319Z,24.07
2018-06-11T11:10:19.708Z,24.51
2018-06-11T11:12:49.846Z,24.73
2018-06-11T11:15:21.068Z,24.56
2018-06-11T11:17:51.368Z,24.36
2018-06-11T11:20:21.741Z,24.08
2018-06-11T11:22:51.990Z,23.89
2018-06-11T11:25:22.060Z,23.76
2018-06-11T11:27:52.712Z,23.80
2018-06-11T11:30:22.994Z,23.95
2018-06-11T11:32:53.237Z,24.03
2018-06-11T11:35:23.574Z,24.64
2018-06-11T11:37:53.907Z,25.14
2018-06-11T11:40:24.239Z,25.14
2018-06-11T11:42:54.220Z,25.00
2018-06-11T11:45:24.412Z,24.83
2018-06-11T11:47:54.452Z,24.87
2018-06-11T11:50:24.841Z,24.86
2018-06-11T11:52:55.851Z,24.74
2018-06-11T11:55:26.020Z,24.73
2018-06-11T11:57:55.954Z,24.81
2018-06-11T12:00:26.455Z,25.01
2018-06-11T12:02:57.497Z,25.19
2018-06-11T12:05:27.971Z,25.71
2018-06-11T12:07:58.169Z,26.27
2018-06-11T12:10:28.077Z,26.61
2018-06-11T12:12:58.259Z,26.57
2018-06-11T12:15:28.170Z,26.89
2018-06-11T12:17:58.252Z,26.85
2018-06-11T12:20:29.139Z,26.67
2018-06-11T12:22:59.153Z,26.21
2018-06-11T12:25:29.265Z,26.26
2018-06-11T12:27:59.465Z,26.57
2018-06-11T12:30:29.723Z,26.83
2018-06-11T12:32:59.788Z,27.13
2018-06-11T12:35:30.008Z,26.86
2018-06-11T12:38:00.285Z,26.68
2018-06-11T12:40:30.423Z,26.57
2018-06-11T12:43:00.649Z,26.53
2018-06-11T12:45:31.061Z,27.40
2018-06-11T12:48:00.953Z,27.93
2018-06-11T12:50:32.013Z,28.03
2018-06-11T12:53:02.206Z,28.09
2018-06-11T12:55:32.588Z,28.05
2018-06-11T12:58:07.299Z,28.26
2018-06-11T13:00:37.596Z,28.07
2018-06-11T13:03:07.949Z,28.14
2018-06-11T13:05:38.113Z,27.97
2018-06-11T13:08:08.046Z,28.32
2018-06-11T13:10:38.320Z,28.42
2018-06-11T13:13:08.581Z,28.11
2018-06-11T13:15:38.792Z,28.15
2018-06-11T13:18:08.805Z,28.48
2018-06-11T13:20:38.972Z,28.71
2018-06-11T13:23:09.285Z,28.76
2018-06-11T13:25:39.624Z,28.78
2018-06-11T13:28:09.896Z,29.00
2018-06-11T13:30:39.979Z,28.82
2018-06-11T13:33:10.209Z,28.76
2018-06-11T13:35:40.496Z,29.01
2018-06-11T13:38:10.951Z,29.22
2018-06-11T13:40:41.052Z,28.74
2018-06-11T13:43:11.053Z,28.87
2018-06-11T13:45:41.571Z,28.88
2018-06-11T13:48:11.571Z,28.83
2018-06-11T13:50:41.692Z,28.76
2018-06-11T13:53:12.212Z,28.65
2018-06-11T13:55:42.442Z,28.91
2018-06-11T13:58:12.466Z,28.68
2018-06-11T14:00:42.495Z,28.82
2018-06-11T14:03:12.526Z,28.82
2018-06-11T14:05:42.713Z,28.83
2018-06-11T14:08:13.099Z,28.74
2018-06-11T14:10:43.270Z,28.68
2018-06-11T14:13:13.518Z,28.45
2018-06-11T14:15:43.698Z,28.47
2018-06-11T14:18:13.892Z,28.53
2018-06-11T14:20:44.143Z,28.57
2018-06-11T14:23:15.476Z,28.73
2018-06-11T14:25:45.363Z,28.55
2018-06-11T14:28:15.604Z,28.68
2018-06-11T14:30:45.758Z,28.62
2018-06-11T14:33:15.797Z,28.91
2018-06-11T14:35:45.949Z,29.29
2018-06-11T14:38:16.319Z,29.44
2018-06-11T14:40:46.694Z,29.93
2018-06-11T14:43:17.948Z,29.88
2018-06-11T14:45:47.980Z,29.13
2018-06-11T14:48:18.430Z,28.87
2018-06-11T14:50:48.462Z,28.99
2018-06-11T14:53:18.771Z,28.78
2018-06-11T14:55:48.892Z,28.78
2018-06-11T14:58:19.161Z,28.56
2018-06-11T15:00:49.387Z,28.71
2018-06-11T15:03:19.529Z,28.66
2018-06-11T15:05:49.825Z,28.38
2018-06-11T15:08:19.901Z,28.79
2018-06-11T15:10:50.242Z,29.23
2018-06-11T15:13:20.349Z,28.92
2018-06-11T15:15:50.835Z,28.53
2018-06-11T15:18:22.092Z,28.90
2018-06-11T15:20:52.141Z,29.46
2018-06-11T15:23:22.235Z,29.85
2018-06-11T15:25:52.378Z,30.16
2018-06-11T15:28:22.711Z,30.59
2018-06-11T15:30:52.957Z,30.68
2018-06-11T15:33:23.135Z,30.24
2018-06-11T15:35:53.419Z,30.75
2018-06-11T15:38:24.029Z,31.09
2018-06-11T15:40:54.410Z,31.45
2018-06-11T15:43:24.556Z,31.67
2018-06-11T15:45:54.645Z,31.26
2018-06-11T15:48:24.774Z,31.36
2018-06-11T15:50:55.085Z,31.50
2018-06-11T15:53:25.245Z,31.53
2018-06-11T15:55:55.416Z,31.56
2018-06-11T15:58:25.708Z,31.73
2018-06-11T16:00:56.025Z,31.68
2018-06-11T16:03:26.325Z,31.79
2018-06-11T16:05:56.521Z,31.41
2018-06-11T16:08:26.441Z,31.78
2018-06-11T16:10:56.802Z,31.73
2018-06-11T16:13:26.973Z,31.53
2018-06-11T16:15:57.177Z,31.63
2018-06-11T16:18:27.377Z,31.89
2018-06-11T16:20:57.684Z,31.43
2018-06-11T16:23:27.936Z,31.28
2018-06-11T16:25:57.932Z,31.31
2018-06-11T16:28:27.901Z,31.34
2018-06-11T16:30:58.037Z,31.28
2018-06-11T16:33:28.328Z,31.40
2018-06-11T16:38:35.011Z,31.31
2018-06-11T16:41:05.510Z,30.75
2018-06-11T16:43:35.870Z,30.51
2018-06-11T16:46:06.039Z,30.12
2018-06-11T16:48:36.197Z,30.38
2018-06-11T16:51:07.011Z,30.27
2018-06-11T16:53:37.489Z,30.30
2018-06-11T16:56:07.707Z,30.45
2018-06-11T16:58:37.859Z,30.36
2018-06-11T17:01:07.566Z,30.00
2018-06-11T17:03:37.900Z,29.81
2018-06-11T17:06:07.979Z,29.65
2018-06-11T17:08:38.510Z,29.41
2018-06-11T17:11:08.822Z,29.32
2018-06-11T17:13:39.114Z,29.38
2018-06-11T17:16:09.342Z,29.55
2018-06-11T17:18:39.953Z,29.23
2018-06-11T17:21:10.315Z,29.15
2018-06-11T17:23:40.478Z,28.94
2018-06-11T17:26:10.758Z,28.78
2018-06-11T17:28:41.118Z,28.68
2018-06-11T17:31:11.528Z,28.48
2018-06-11T17:33:41.653Z,28.52
2018-06-11T17:36:12.623Z,28.59
2018-06-11T17:38:42.732Z,28.58
2018-06-11T17:41:12.862Z,28.28
2018-06-11T17:43:42.930Z,27.97
2018-06-11T17:46:13.143Z,27.67
2018-06-11T17:48:43.389Z,27.22
2018-06-11T17:51:13.447Z,26.82
2018-06-11T17:53:43.761Z,26.55
2018-06-11T17:56:13.858Z,26.28
2018-06-11T17:58:44.196Z,26.07
2018-06-11T18:01:14.262Z,25.95
2018-06-11T18:03:44.509Z,25.86
2018-06-11T18:06:14.714Z,25.78
2018-06-11T18:08:45.021Z,25.74
2018-06-11T18:11:15.286Z,25.74
2018-06-11T18:13:45.547Z,25.64
2018-06-11T18:16:15.635Z,25.57
2018-06-11T18:18:45.795Z,25.37
2018-06-11T18:21:16.098Z,25.23
2018-06-11T18:23:47.116Z,25.09
2018-06-11T18:26:17.642Z,24.91
2018-06-11T18:28:47.988Z,24.76
2018-06-11T18:31:18.273Z,24.61
2018-06-11T18:33:48.459Z,24.48
2018-06-11T18:36:18.476Z,24.48
2018-06-11T18:38:48.622Z,24.33
2018-06-11T18:41:18.660Z,24.17
2018-06-11T18:43:48.936Z,24.07
2018-06-11T18:46:19.063Z,23.99
2018-06-11T18:48:49.347Z,23.85
2018-06-11T18:51:19.666Z,23.68
2018-06-11T18:53:49.846Z,23.52
2018-06-11T18:56:20.022Z,23.46
2018-06-11T18:58:50.265Z,23.48
2018-06-11T19:01:20.532Z,23.35
2018-06-11T19:03:50.664Z,23.19
2018-06-11T19:06:20.900Z,23.03
2018-06-11T19:08:51.313Z,22.83
2018-06-11T19:11:21.562Z,22.58
2018-06-11T19:13:52.766Z,22.36
2018-06-11T19:16:22.800Z,22.18
2018-06-11T19:18:53.040Z,22.10
2018-06-11T19:21:23.195Z,21.99
2018-06-11T19:23:53.566Z,21.99
2018-06-11T19:26:23.836Z,21.89
2018-06-11T19:28:54.124Z,21.79
2018-06-11T19:31:24.347Z,21.70
2018-06-11T19:33:54.460Z,21.67
2018-06-11T19:36:24.735Z,21.63
2018-06-11T19:38:55.107Z,21.49
2018-06-11T19:41:25.483Z,21.30
2018-06-11T19:43:55.799Z,21.20
2018-06-11T19:46:26.043Z,21.23
2018-06-11T19:48:56.226Z,21.18
2018-06-11T19:51:26.509Z,21.08
2018-06-11T19:53:56.417Z,21.11
2018-06-11T19:56:26.902Z,21.07
2018-06-11T19:58:57.090Z,20.99
2018-06-11T20:01:27.180Z,21.02
2018-06-11T20:03:58.301Z,20.96
2018-06-11T20:06:28.700Z,20.90
2018-06-11T20:08:58.520Z,20.71
2018-06-11T20:11:28.693Z,20.55
2018-06-11T20:13:58.672Z,20.61
2018-06-11T20:16:28.765Z,20.43
2018-06-11T20:18:59.024Z,20.32
2018-06-11T20:21:29.314Z,20.24
2018-06-11T20:23:59.354Z,20.23
2018-06-11T20:26:29.590Z,20.22
2018-06-11T20:28:59.902Z,20.21
2018-06-11T20:31:30.199Z,20.19
2018-06-11T20:34:00.346Z,20.25
2018-06-11T20:36:30.722Z,20.25
2018-06-11T20:39:00.836Z,20.16
2018-06-11T20:41:31.021Z,20.15
2018-06-11T20:44:01.166Z,20.11
2018-06-11T20:46:31.495Z,20.12
2018-06-11T20:49:01.857Z,20.15
2018-06-11T20:51:32.130Z,20.14
2018-06-11T20:54:02.209Z,20.15
2018-06-11T20:56:32.514Z,20.19
2018-06-11T20:59:03.490Z,20.14
2018-06-11T21:01:33.953Z,20.07
2018-06-11T21:04:03.993Z,20.12
2018-06-11T21:06:34.155Z,20.12
2018-06-11T21:09:05.210Z,20.09
2018-06-11T21:11:35.449Z,20.09
2018-06-11T21:14:05.558Z,19.97
2018-06-11T21:16:35.848Z,19.79
2018-06-11T21:19:06.012Z,19.67
2018-06-11T21:21:36.364Z,19.54
2018-06-11T21:24:06.725Z,19.37
2018-06-11T21:26:36.968Z,19.27
2018-06-11T21:29:07.115Z,19.18
2018-06-11T21:31:37.380Z,19.11
2018-06-11T21:34:07.311Z,19.03
2018-06-11T21:36:37.434Z,18.97
2018-06-11T21:39:09.656Z,18.91
2018-06-11T21:41:40.013Z,18.88
2018-06-11T21:44:10.285Z,18.81
2018-06-11T21:46:40.627Z,18.79
2018-06-11T21:49:10.568Z,18.80
2018-06-11T21:51:40.759Z,18.81
2018-06-11T21:54:10.600Z,18.79
2018-06-11T21:56:40.770Z,18.75
2018-06-11T21:59:11.872Z,18.72
2018-06-11T22:01:42.192Z,18.72
2018-06-11T22:04:12.087Z,18.75
2018-06-11T22:06:42.686Z,18.75
2018-06-11T22:09:12.713Z,18.75
2018-06-11T22:11:42.853Z,18.75
2018-06-11T22:14:13.445Z,18.75
2018-06-11T22:16:43.519Z,18.72
2018-06-11T22:19:13.515Z,18.66
2018-06-11T22:21:43.749Z,18.61
2018-06-11T22:24:13.738Z,18.62
2018-06-11T22:26:43.842Z,18.56
2018-06-11T22:29:14.081Z,18.48
2018-06-11T22:31:44.171Z,18.45
2018-06-11T22:34:14.380Z,18.42
2018-06-11T22:36:44.652Z,18.33
2018-06-11T22:39:14.908Z,18.18
2018-06-11T22:41:45.017Z,18.08
2018-06-11T22:44:15.218Z,18.00
2018-06-11T22:46:45.111Z,17.95
2018-06-11T22:49:15.318Z,17.94
2018-06-11T22:51:45.426Z,17.93
2018-06-11T22:54:15.449Z,17.90
2018-06-11T22:56:45.682Z,17.89
2018-06-11T22:59:15.989Z,17.87
2018-06-11T23:01:46.392Z,17.82
2018-06-11T23:04:16.640Z,17.78
2018-06-11T23:06:46.801Z,17.72
2018-06-11T23:09:16.916Z,17.69
2018-06-11T23:11:46.983Z,17.68
2018-06-11T23:14:16.908Z,17.61
2018-06-11T23:16:46.976Z,17.55
2018-06-11T23:19:17.070Z,17.50
2018-06-11T23:21:47.100Z,17.45
2018-06-11T23:24:17.179Z,17.42
2018-06-11T23:26:47.161Z,17.44
2018-06-11T23:29:17.152Z,17.40
2018-06-11T23:31:47.077Z,17.36
2018-06-11T23:34:18.094Z,17.42
2018-06-11T23:36:48.436Z,17.43
2018-06-11T23:39:18.383Z,17.43
2018-06-11T23:41:48.743Z,17.40
2018-06-11T23:44:18.933Z,17.34
2018-06-11T23:46:48.929Z,17.31
2018-06-11T23:49:19.058Z,17.27
2018-06-11T23:51:49.421Z,17.29
2018-06-11T23:54:19.766Z,17.33
2018-06-11T23:56:49.615Z,17.35
2018-06-11T23:59:19.749Z,17.36
